createdAt,value
2018-10-01T00:00:09.112Z,11.86
2018-10-01T00:01:09.108Z,11.80
2018-10-01T00:02:09.103Z,11.83
2018-10-01T00:03:09.102Z,11.81
2018-10-01T00:04:09.097Z,11.80
2018-10-01T00:05:09.096Z,11.84
2018-10-01T00:06:09.090Z,11.81
2018-10-01T00:07:09.086Z,11.84
2018-10-01T00:08:09.083Z,11.87
2018-10-01T00:09:09.080Z,11.83
2018-10-01T00:10:09.076Z,11.80
2018-10-01T00:11:09.073Z,11.84
2018-10-01T00:12:09.070Z,11.77
2018-10-01T00:13:09.064Z,11.78
2018-10-01T00:14:09.061Z,11.80
2018-10-01T00:15:09.057Z,11.70
2018-10-01T00:16:09.055Z,11.75
2018-10-01T00:17:09.051Z,11.68
2018-10-01T00:18:09.047Z,11.69
2018-10-01T00:19:09.044Z,11.70
2018-10-01T00:20:09.039Z,11.69
2018-10-01T00:21:09.037Z,11.66
2018-10-01T00:22:09.032Z,11.66
2018-10-01T00:23:09.030Z,11.62
2018-10-01T00:24:09.026Z,11.69
2018-10-01T00:25:09.022Z,11.69
2018-10-01T00:26:09.018Z,11.69
2018-10-01T00:27:09.017Z,11.66
2018-10-01T00:28:09.013Z,11.65
2018-10-01T00:29:09.008Z,11.60
2018-10-01T00:30:09.005Z,11.57
2018-10-01T00:31:09.005Z,11.57
2018-10-01T00:32:08.998Z,11.65
2018-10-01T00:33:08.995Z,11.54
2018-10-01T00:34:08.991Z,11.52
2018-10-01T00:35:08.992Z,11.59
2018-10-01T00:36:08.983Z,11.59
2018-10-01T00:37:08.979Z,11.59
2018-10-01T00:38:08.995Z,11.52
2018-10-01T00:39:08.976Z,11.52
2018-10-01T00:40:08.970Z,11.54
2018-10-01T00:41:08.965Z,11.63
2018-10-01T00:42:08.962Z,11.51
2018-10-01T00:43:08.957Z,11.55
2018-10-01T00:44:08.955Z,11.52
2018-10-01T00:45:08.951Z,11.51
2018-10-01T00:46:08.948Z,11.48
2018-10-01T00:47:08.945Z,11.51
2018-10-01T00:48:08.942Z,11.51
2018-10-01T00:49:08.938Z,11.52
2018-10-01T00:50:08.933Z,11.52
2018-10-01T00:51:08.929Z,11.50
2018-10-01T00:52:08.926Z,11.47
2018-10-01T00:53:08.924Z,11.48
2018-10-01T00:54:08.920Z,11.50
2018-10-01T00:55:08.915Z,11.50
2018-10-01T00:56:08.912Z,11.55
2018-10-01T00:57:08.910Z,11.57
2018-10-01T00:58:08.908Z,11.51
2018-10-01T00:59:08.902Z,11.62
2018-10-01T01:00:08.899Z,11.60
2018-10-01T01:01:08.896Z,11.50
2018-10-01T01:02:08.891Z,11.57
2018-10-01T01:03:08.887Z,11.43
2018-10-01T01:04:08.887Z,11.50
2018-10-01T01:05:08.880Z,11.48
2018-10-01T01:06:08.877Z,11.45
2018-10-01T01:07:08.873Z,11.48
2018-10-01T01:08:08.871Z,11.41
2018-10-01T01:09:08.867Z,11.43
2018-10-01T01:10:08.861Z,11.35
2018-10-01T01:11:08.858Z,11.33
2018-10-01T01:12:08.856Z,11.32
2018-10-01T01:13:08.852Z,11.37
2018-10-01T01:14:08.849Z,11.32
2018-10-01T01:15:08.845Z,11.25
2018-10-01T01:16:08.841Z,11.35
2018-10-01T01:17:08.837Z,11.23
2018-10-01T01:18:08.834Z,11.33
2018-10-01T01:19:08.831Z,11.26
2018-10-01T01:20:08.827Z,11.22
2018-10-01T01:21:08.823Z,11.26
2018-10-01T01:22:08.819Z,11.22
2018-10-01T01:23:08.814Z,11.19
2018-10-01T01:24:08.812Z,11.25
2018-10-01T01:25:08.808Z,11.17
2018-10-01T01:26:08.804Z,11.17
2018-10-01T01:27:08.801Z,11.12
2018-10-01T01:28:08.797Z,11.08
2018-10-01T01:29:08.795Z,11.14
2018-10-01T01:30:08.788Z,11.05
2018-10-01T01:31:08.785Z,11.08
2018-10-01T01:32:08.782Z,11.14
2018-10-01T01:33:08.778Z,11.07
2018-10-01T01:34:08.773Z,11.07
2018-10-01T01:35:08.771Z,11.07
2018-10-01T01:36:08.766Z,11.02
2018-10-01T01:37:08.763Z,11.14
2018-10-01T01:38:08.759Z,10.93
2018-10-01T01:39:08.758Z,11.00
2018-10-01T01:40:08.750Z,10.99
2018-10-01T01:41:08.746Z,11.07
2018-10-01T01:42:08.744Z,10.96
2018-10-01T01:43:08.742Z,10.96
2018-10-01T01:44:08.735Z,10.90
2018-10-01T01:45:08.731Z,10.96
2018-10-01T01:46:08.727Z,10.96
2018-10-01T01:47:08.722Z,10.93
2018-10-01T01:48:08.719Z,10.99
2018-10-01T01:49:08.714Z,10.94
2018-10-01T01:50:08.711Z,10.92
2018-10-01T01:51:08.708Z,10.94
2018-10-01T01:52:08.703Z,10.86
2018-10-01T01:53:08.697Z,10.96
2018-10-01T01:54:08.694Z,10.89
2018-10-01T01:55:08.690Z,10.89
2018-10-01T01:56:08.688Z,10.81
2018-10-01T01:57:08.683Z,10.81
2018-10-01T01:58:08.678Z,10.79
2018-10-01T01:59:08.673Z,10.79
2018-10-01T02:00:08.669Z,10.72
2018-10-01T02:01:08.668Z,10.75
2018-10-01T02:02:08.661Z,10.75
2018-10-01T02:03:08.658Z,10.74
2018-10-01T02:04:08.653Z,10.71
2018-10-01T02:05:08.649Z,10.68
2018-10-01T02:06:08.643Z,10.68
2018-10-01T02:07:08.638Z,10.61
2018-10-01T02:08:08.636Z,10.63
2018-10-01T02:09:08.635Z,10.61
2018-10-01T02:10:08.627Z,10.67
2018-10-01T02:11:08.623Z,10.61
2018-10-01T02:12:08.618Z,10.61
2018-10-01T02:13:08.614Z,10.54
2018-10-01T02:14:08.609Z,10.53
2018-10-01T02:15:08.605Z,10.54
2018-10-01T02:16:08.602Z,10.56
2018-10-01T02:17:08.599Z,10.56
2018-10-01T02:18:08.595Z,10.59
2018-10-01T02:19:08.587Z,10.56
2018-10-01T02:20:08.584Z,10.44
2018-10-01T02:21:08.579Z,10.46
2018-10-01T02:22:08.574Z,10.46
2018-10-01T02:23:08.569Z,10.33
2018-10-01T02:24:08.567Z,10.40
2018-10-01T02:25:08.562Z,10.34
2018-10-01T02:26:08.555Z,10.37
2018-10-01T02:27:08.553Z,10.34
2018-10-01T02:28:08.549Z,10.33
2018-10-01T02:29:08.544Z,10.31
2018-10-01T02:30:08.538Z,10.34
2018-10-01T02:31:08.534Z,10.38
2018-10-01T02:32:08.531Z,10.30
2018-10-01T02:33:08.526Z,10.28
2018-10-01T02:34:08.520Z,10.19
2018-10-01T02:35:08.515Z,10.09
2018-10-01T02:36:08.511Z,10.20
2018-10-01T02:37:08.507Z,10.19
2018-10-01T02:38:08.501Z,10.12
2018-10-01T02:39:08.500Z,10.07
2018-10-01T02:40:08.493Z,10.15
2018-10-01T02:41:08.488Z,10.16
2018-10-01T02:42:08.486Z,10.13
2018-10-01T02:43:08.480Z,10.20
2018-10-01T02:44:08.476Z,10.19
2018-10-01T02:45:08.474Z,10.15
2018-10-01T02:46:08.465Z,10.02
2018-10-01T02:47:08.464Z,10.07
2018-10-01T02:48:08.458Z,9.99
2018-10-01T02:49:08.454Z,9.98
2018-10-01T02:50:08.447Z,9.92
2018-10-01T02:51:08.443Z,9.92
2018-10-01T02:52:08.440Z,9.89
2018-10-01T02:53:08.433Z,9.83
2018-10-01T02:54:08.428Z,9.86
2018-10-01T02:55:08.424Z,9.79
2018-10-01T02:56:08.428Z,9.79
2018-10-01T02:57:08.417Z,9.82
2018-10-01T02:58:08.410Z,9.76
2018-10-01T02:59:08.406Z,9.73
2018-10-01T03:00:08.400Z,9.72
2018-10-01T03:01:08.396Z,9.72
2018-10-01T03:02:08.391Z,9.77
2018-10-01T03:03:08.386Z,9.80
2018-10-01T03:04:08.382Z,9.73
2018-10-01T03:05:08.377Z,9.77
2018-10-01T03:06:08.371Z,9.76
2018-10-01T03:07:08.367Z,9.77
2018-10-01T03:08:08.363Z,9.68
2018-10-01T03:09:08.359Z,9.80
2018-10-01T03:10:08.351Z,9.80
2018-10-01T03:11:08.348Z,9.76
2018-10-01T03:12:08.383Z,9.72
2018-10-01T03:13:08.340Z,9.68
2018-10-01T03:14:08.336Z,9.69
2018-10-01T03:15:08.393Z,9.68
2018-10-01T03:16:08.348Z,9.65
2018-10-01T03:17:08.321Z,9.62
2018-10-01T03:18:08.312Z,9.62
2018-10-01T03:19:08.309Z,9.69
2018-10-01T03:20:08.304Z,9.65
2018-10-01T03:21:08.315Z,9.64
2018-10-01T03:22:08.295Z,9.58
2018-10-01T03:23:08.290Z,9.58
2018-10-01T03:24:08.285Z,9.59
2018-10-01T03:25:08.280Z,9.65
2018-10-01T03:26:08.276Z,9.65
2018-10-01T03:27:08.274Z,9.65
2018-10-01T03:28:08.292Z,9.66
2018-10-01T03:29:08.261Z,9.72
2018-10-01T03:30:08.256Z,9.65
2018-10-01T03:31:08.250Z,9.65
2018-10-01T03:32:08.247Z,9.65
2018-10-01T03:33:08.241Z,9.62
2018-10-01T03:34:08.236Z,9.61
2018-10-01T03:35:08.232Z,9.65
2018-10-01T03:36:08.226Z,9.65
2018-10-01T03:37:08.225Z,9.69
2018-10-01T03:38:08.219Z,9.74
2018-10-01T03:39:08.212Z,9.76
2018-10-01T03:40:08.282Z,9.66
2018-10-01T03:41:08.204Z,9.66
2018-10-01T03:42:08.196Z,9.69
2018-10-01T03:43:08.192Z,9.79
2018-10-01T03:44:08.189Z,9.77
2018-10-01T03:45:08.182Z,9.86
2018-10-01T03:46:08.176Z,9.89
2018-10-01T03:47:08.172Z,9.82
2018-10-01T03:48:08.168Z,9.89
2018-10-01T03:49:08.166Z,9.86
2018-10-01T03:50:08.158Z,9.91
2018-10-01T03:51:08.153Z,9.87
2018-10-01T03:52:08.149Z,9.91
2018-10-01T03:53:08.143Z,9.89
2018-10-01T03:54:08.137Z,9.98
2018-10-01T03:55:08.132Z,9.92
2018-10-01T03:56:08.128Z,9.92
2018-10-01T03:57:08.122Z,9.87
2018-10-01T03:58:08.170Z,9.91
2018-10-01T03:59:08.114Z,10.01
2018-10-01T04:00:08.108Z,9.89
2018-10-01T04:01:08.104Z,9.91
2018-10-01T04:02:08.103Z,9.95
2018-10-01T04:03:08.158Z,9.98
2018-10-01T04:04:08.091Z,9.97
2018-10-01T04:05:08.087Z,9.95
2018-10-01T04:06:08.079Z,9.91
2018-10-01T04:07:08.075Z,10.04
2018-10-01T04:08:08.068Z,9.98
2018-10-01T04:09:08.065Z,10.01
2018-10-01T04:10:08.058Z,10.01
2018-10-01T04:11:08.053Z,9.97
2018-10-01T04:12:08.049Z,9.89
2018-10-01T04:13:08.043Z,9.87
2018-10-01T04:14:08.042Z,9.86
2018-10-01T04:15:08.033Z,9.91
2018-10-01T04:16:08.028Z,9.91
2018-10-01T04:17:08.028Z,9.89
2018-10-01T04:18:08.019Z,9.98
2018-10-01T04:19:08.015Z,9.99
2018-10-01T04:20:08.009Z,9.99
2018-10-01T04:21:08.005Z,9.91
2018-10-01T04:22:07.999Z,9.87
2018-10-01T04:23:07.995Z,9.89
2018-10-01T04:24:07.989Z,9.95
2018-10-01T04:25:07.987Z,9.94
2018-10-01T04:26:07.979Z,9.84
2018-10-01T04:27:07.975Z,9.91
2018-10-01T04:28:07.997Z,9.98
2018-10-01T04:29:07.966Z,9.94
2018-10-01T04:30:07.967Z,9.95
2018-10-01T04:31:07.958Z,9.92
2018-10-01T04:32:07.950Z,9.80
2018-10-01T04:33:07.948Z,9.87
2018-10-01T04:34:07.939Z,9.91
2018-10-01T04:35:07.935Z,9.91
2018-10-01T04:36:07.931Z,9.92
2018-10-01T04:37:07.927Z,9.87
2018-10-01T04:38:07.921Z,9.83
2018-10-01T04:39:07.915Z,9.91
2018-10-01T04:40:07.920Z,9.89
2018-10-01T04:41:07.906Z,9.83
2018-10-01T04:42:07.900Z,9.86
2018-10-01T04:43:07.896Z,9.73
2018-10-01T04:44:07.890Z,9.73
2018-10-01T04:45:07.886Z,9.82
2018-10-01T04:46:07.882Z,9.79
2018-10-01T04:47:07.878Z,9.77
2018-10-01T04:48:07.871Z,9.79
2018-10-01T04:49:07.867Z,9.82
2018-10-01T04:50:07.861Z,9.80
2018-10-01T04:51:07.858Z,9.76
2018-10-01T04:52:07.851Z,9.77
2018-10-01T04:53:07.847Z,9.79
2018-10-01T04:54:07.841Z,9.74
2018-10-01T04:55:07.836Z,9.68
2018-10-01T04:56:07.831Z,9.68
2018-10-01T04:57:07.829Z,9.62
2018-10-01T04:58:07.895Z,9.73
2018-10-01T04:59:07.817Z,9.66
2018-10-01T05:00:07.812Z,9.73
2018-10-01T05:01:07.806Z,9.68
2018-10-01T05:02:07.802Z,9.69
2018-10-01T05:03:07.796Z,9.68
2018-10-01T05:04:07.790Z,9.62
2018-10-01T05:05:07.787Z,9.69
2018-10-01T05:06:07.804Z,9.66
2018-10-01T05:07:07.778Z,9.66
2018-10-01T05:08:07.772Z,9.69
2018-10-01T05:09:07.767Z,9.61
2018-10-01T05:10:07.761Z,9.59
2018-10-01T05:11:07.759Z,9.54
2018-10-01T05:12:07.751Z,9.50
2018-10-01T05:13:07.747Z,9.48
2018-10-01T05:14:07.740Z,9.48
2018-10-01T05:15:07.734Z,9.41
2018-10-01T05:16:07.733Z,9.41
2018-10-01T05:17:07.729Z,9.39
2018-10-01T05:18:07.720Z,9.32
2018-10-01T05:19:07.715Z,9.32
2018-10-01T05:20:07.709Z,9.28
2018-10-01T05:21:07.704Z,9.36
2018-10-01T05:22:07.697Z,9.29
2018-10-01T05:23:07.694Z,9.29
2018-10-01T05:24:07.696Z,9.29
2018-10-01T05:25:07.684Z,9.28
2018-10-01T05:26:07.677Z,9.21
2018-10-01T05:27:07.747Z,9.18
2018-10-01T05:28:07.666Z,9.22
2018-10-01T05:29:07.661Z,9.19
2018-10-01T05:30:07.656Z,9.16
2018-10-01T05:31:07.652Z,9.22
2018-10-01T05:32:07.646Z,9.21
2018-10-01T05:33:07.641Z,9.11
2018-10-01T05:34:07.633Z,9.14
2018-10-01T05:35:07.630Z,9.16
2018-10-01T05:36:07.624Z,9.14
2018-10-01T05:37:07.620Z,9.16
2018-10-01T05:38:07.613Z,9.10
2018-10-01T05:39:07.609Z,9.11
2018-10-01T05:40:07.603Z,9.22
2018-10-01T05:41:07.599Z,9.11
2018-10-01T05:42:07.594Z,9.16
2018-10-01T05:43:07.587Z,9.16
2018-10-01T05:44:07.580Z,9.13
2018-10-01T05:45:07.575Z,9.19
2018-10-01T05:46:07.568Z,9.19
2018-10-01T05:47:07.564Z,9.14
2018-10-01T05:48:07.559Z,9.22
2018-10-01T05:49:07.576Z,9.19
2018-10-01T05:50:07.547Z,9.13
2018-10-01T05:51:07.543Z,9.10
2018-10-01T05:52:07.536Z,9.16
2018-10-01T05:53:07.533Z,9.16
2018-10-01T05:54:07.524Z,9.11
2018-10-01T05:55:07.521Z,9.06
2018-10-01T05:56:07.514Z,8.97
2018-10-01T05:57:07.509Z,9.06
2018-10-01T05:58:07.562Z,9.08
2018-10-01T05:59:07.498Z,8.99
2018-10-01T06:00:07.492Z,9.02
2018-10-01T06:01:07.487Z,9.19
2018-10-01T06:02:07.482Z,9.04
2018-10-01T06:03:07.475Z,9.08
2018-10-01T06:04:07.469Z,9.04
2018-10-01T06:05:07.463Z,9.03
2018-10-01T06:06:07.458Z,9.06
2018-10-01T06:07:07.452Z,9.10
2018-10-01T06:08:07.448Z,9.00
2018-10-01T06:09:07.442Z,9.14
2018-10-01T06:10:07.435Z,9.13
2018-10-01T06:11:07.431Z,9.03
2018-10-01T06:12:07.426Z,9.03
2018-10-01T06:13:07.420Z,9.06
2018-10-01T06:14:07.414Z,9.10
2018-10-01T06:15:07.409Z,8.97
2018-10-01T06:16:07.402Z,9.08
2018-10-01T06:17:07.397Z,9.16
2018-10-01T06:18:07.391Z,9.16
2018-10-01T06:19:07.384Z,9.18
2018-10-01T06:20:07.379Z,9.19
2018-10-01T06:21:07.373Z,9.18
2018-10-01T06:22:07.369Z,9.19
2018-10-01T06:23:07.362Z,9.14
2018-10-01T06:24:07.355Z,9.21
2018-10-01T06:25:07.361Z,9.10
2018-10-01T06:26:07.346Z,9.18
2018-10-01T06:27:07.340Z,9.16
2018-10-01T06:28:07.334Z,9.21
2018-10-01T06:29:07.330Z,9.28
2018-10-01T06:30:07.328Z,9.26
2018-10-01T06:31:07.321Z,9.28
2018-10-01T06:32:07.312Z,9.46
2018-10-01T06:33:07.307Z,9.43
2018-10-01T06:34:07.300Z,9.54
2018-10-01T06:35:07.294Z,9.55
2018-10-01T06:36:07.315Z,9.66
2018-10-01T06:37:07.286Z,9.66
2018-10-01T06:38:07.297Z,9.77
2018-10-01T06:39:07.272Z,9.82
2018-10-01T06:40:07.269Z,9.91
2018-10-01T06:41:07.263Z,9.97
2018-10-01T06:42:07.348Z,9.99
2018-10-01T06:43:07.250Z,10.12
2018-10-01T06:44:07.244Z,10.10
2018-10-01T06:45:07.240Z,10.20
2018-10-01T06:46:07.235Z,10.17
2018-10-01T06:47:07.228Z,10.07
2018-10-01T06:48:07.223Z,10.10
2018-10-01T06:49:07.219Z,10.07
2018-10-01T06:50:07.212Z,10.22
2018-10-01T06:51:07.242Z,10.07
2018-10-01T06:52:07.203Z,10.12
2018-10-01T06:53:07.197Z,10.20
2018-10-01T06:54:07.192Z,10.07
2018-10-01T06:55:07.191Z,10.12
2018-10-01T06:56:07.183Z,10.17
2018-10-01T06:57:07.176Z,10.15
2018-10-01T06:58:07.169Z,10.23
2018-10-01T06:59:07.165Z,10.16
2018-10-01T07:00:07.160Z,10.25
2018-10-01T07:01:07.162Z,10.28
2018-10-01T07:02:07.150Z,10.23
2018-10-01T07:03:07.145Z,10.17
2018-10-01T07:04:07.139Z,10.12
2018-10-01T07:05:07.134Z,10.17
2018-10-01T07:06:07.129Z,10.05
2018-10-01T07:07:07.135Z,10.12
2018-10-01T07:08:07.119Z,10.16
2018-10-01T07:09:07.112Z,10.04
2018-10-01T07:10:07.107Z,10.17
2018-10-01T07:11:07.124Z,10.12
2018-10-01T07:12:07.103Z,10.07
2018-10-01T07:13:07.141Z,10.30
2018-10-01T07:14:07.086Z,10.23
2018-10-01T07:15:07.095Z,10.25
2018-10-01T07:16:07.077Z,10.19
2018-10-01T07:17:07.124Z,10.33
2018-10-01T07:18:07.069Z,10.34
2018-10-01T07:19:07.061Z,10.33
2018-10-01T07:20:07.056Z,10.34
2018-10-01T07:21:07.049Z,10.38
2018-10-01T07:22:07.042Z,10.44
2018-10-01T07:23:07.126Z,10.54
2018-10-01T07:24:07.033Z,10.61
2018-10-01T07:25:07.028Z,10.60
2018-10-01T07:26:07.023Z,10.68
2018-10-01T07:27:07.018Z,10.74
2018-10-01T07:28:07.014Z,10.67
2018-10-01T07:29:07.008Z,10.68
2018-10-01T07:30:07.003Z,10.76
2018-10-01T07:31:06.997Z,10.74
2018-10-01T07:32:06.993Z,10.74
2018-10-01T07:33:06.988Z,10.74
2018-10-01T07:34:06.981Z,10.78
2018-10-01T07:35:06.978Z,10.89
2018-10-01T07:36:06.972Z,10.86
2018-10-01T07:37:06.968Z,10.99
2018-10-01T07:38:06.965Z,10.97
2018-10-01T07:39:07.036Z,10.93
2018-10-01T07:40:06.951Z,10.92
2018-10-01T07:41:06.947Z,10.96
2018-10-01T07:42:06.942Z,11.07
2018-10-01T07:43:06.936Z,10.99
2018-10-01T07:44:06.934Z,11.05
2018-10-01T07:45:06.993Z,11.05
2018-10-01T07:46:06.949Z,11.11
2018-10-01T07:47:06.927Z,11.15
2018-10-01T07:48:06.917Z,11.27
2018-10-01T07:49:06.928Z,11.26
2018-10-01T07:50:06.904Z,11.30
2018-10-01T07:51:07.038Z,11.33
2018-10-01T07:52:06.894Z,11.30
2018-10-01T07:53:06.893Z,11.48
2018-10-01T07:54:06.882Z,11.36
2018-10-01T07:55:06.880Z,11.57
2018-10-01T07:56:06.874Z,11.59
2018-10-01T07:57:06.914Z,11.57
2018-10-01T07:58:06.864Z,11.59
2018-10-01T07:59:06.861Z,11.66
2018-10-01T08:00:07.187Z,11.62
2018-10-01T08:01:06.851Z,11.51
2018-10-01T08:02:06.869Z,11.62
2018-10-01T08:03:06.842Z,11.63
2018-10-01T08:04:06.835Z,11.62
2018-10-01T08:05:06.832Z,11.70
2018-10-01T08:06:06.825Z,11.72
2018-10-01T08:07:06.821Z,11.80
2018-10-01T08:08:06.844Z,11.75
2018-10-01T08:09:06.813Z,11.83
2018-10-01T08:10:06.807Z,11.86
2018-10-01T08:11:06.803Z,11.84
2018-10-01T08:12:06.798Z,11.83
2018-10-01T08:13:06.795Z,11.84
2018-10-01T08:14:06.848Z,11.87
2018-10-01T08:15:06.784Z,11.87
2018-10-01T08:16:06.780Z,11.97
2018-10-01T08:17:06.776Z,12.04
2018-10-01T08:18:06.771Z,12.03
2018-10-01T08:19:06.765Z,12.03
2018-10-01T08:20:06.800Z,11.99
2018-10-01T08:21:06.757Z,12.09
2018-10-01T08:22:06.752Z,12.10
2018-10-01T08:23:06.747Z,12.09
2018-10-01T08:24:06.744Z,12.22
2018-10-01T08:25:06.739Z,12.18
2018-10-01T08:26:06.743Z,12.28
2018-10-01T08:27:06.731Z,12.32
2018-10-01T08:28:06.726Z,12.35
2018-10-01T08:29:06.744Z,12.29
2018-10-01T08:30:06.718Z,12.43
2018-10-01T08:31:06.714Z,12.49
2018-10-01T08:32:06.760Z,12.54
2018-10-01T08:33:06.704Z,12.68
2018-10-01T08:34:06.698Z,12.62
2018-10-01T08:35:06.727Z,12.68
2018-10-01T08:36:06.691Z,12.58
2018-10-01T08:37:06.688Z,12.76
2018-10-01T08:38:06.707Z,12.82
2018-10-01T08:39:06.679Z,12.85
2018-10-01T08:40:06.675Z,12.78
2018-10-01T08:41:06.682Z,12.85
2018-10-01T08:42:06.664Z,12.78
2018-10-01T08:43:06.685Z,12.80
2018-10-01T08:44:06.662Z,12.82
2018-10-01T08:45:06.655Z,12.94
2018-10-01T08:46:06.654Z,12.97
2018-10-01T08:47:06.665Z,12.87
2018-10-01T08:48:06.641Z,12.87
2018-10-01T08:49:06.639Z,13.04
2018-10-01T08:50:06.691Z,13.01
2018-10-01T08:51:06.629Z,13.18
2018-10-01T08:52:06.644Z,13.25
2018-10-01T08:53:06.633Z,13.28
2018-10-01T08:54:06.617Z,13.23
2018-10-01T08:55:06.614Z,13.22
2018-10-01T08:56:06.635Z,13.38
2018-10-01T08:57:06.608Z,13.47
2018-10-01T08:58:06.606Z,13.47
2018-10-01T08:59:06.645Z,13.42
2018-10-01T09:00:06.599Z,13.47
2018-10-01T09:01:06.645Z,13.57
2018-10-01T09:02:06.639Z,13.57
2018-10-01T09:03:06.585Z,13.71
2018-10-01T09:04:06.583Z,13.60
2018-10-01T09:05:06.618Z,13.54
2018-10-01T09:06:06.576Z,14.53
2018-10-01T09:07:06.573Z,15.37
2018-10-01T09:08:06.609Z,16.41
2018-10-01T09:09:06.566Z,16.61
2018-10-01T09:10:06.566Z,15.73
2018-10-01T09:11:06.585Z,15.75
2018-10-01T09:12:06.563Z,15.90
2018-10-01T09:13:06.561Z,16.08
2018-10-01T09:14:06.636Z,15.03
2018-10-01T09:15:06.561Z,15.91
2018-10-01T09:16:06.561Z,15.00
2018-10-01T09:17:06.612Z,14.65
2018-10-01T09:18:06.560Z,14.68
2018-10-01T09:19:06.561Z,14.55
2018-10-01T09:20:06.635Z,14.11
2018-10-01T09:21:06.585Z,13.86
2018-10-01T09:22:06.561Z,13.79
2018-10-01T09:23:06.631Z,13.86
2018-10-01T09:24:06.562Z,13.78
2018-10-01T09:25:06.564Z,13.96
2018-10-01T09:26:06.624Z,14.79
2018-10-01T09:27:06.563Z,15.59
2018-10-01T09:28:06.564Z,16.76
2018-10-01T09:29:06.624Z,16.08
2018-10-01T09:30:06.566Z,14.94
2018-10-01T09:31:06.616Z,14.43
2018-10-01T09:32:06.611Z,14.20
2018-10-01T09:33:06.564Z,13.93
2018-10-01T09:34:06.564Z,13.86
2018-10-01T09:35:06.578Z,13.70
2018-10-01T09:36:06.565Z,13.41
2018-10-01T09:37:06.565Z,13.37
2018-10-01T09:38:06.623Z,13.46
2018-10-01T09:39:06.564Z,13.28
2018-10-01T09:40:06.570Z,13.47
2018-10-01T09:41:06.563Z,15.28
2018-10-01T09:42:06.577Z,15.19
2018-10-01T09:43:06.562Z,15.84
2018-10-01T09:44:06.604Z,17.20
2018-10-01T09:45:06.568Z,17.85
2018-10-01T09:46:06.593Z,18.44
2018-10-01T09:47:06.560Z,18.35
2018-10-01T09:48:06.620Z,17.78
2018-10-01T09:49:06.564Z,16.16
2018-10-01T09:50:06.570Z,15.15
2018-10-01T09:51:06.564Z,14.99
2018-10-01T09:52:06.665Z,14.65
2018-10-01T09:53:06.567Z,14.53
2018-10-01T09:54:06.566Z,14.89
2018-10-01T09:55:06.568Z,16.32
2018-10-01T09:56:06.598Z,16.08
2018-10-01T09:57:06.569Z,15.27
2018-10-01T09:58:06.646Z,14.73
2018-10-01T09:59:06.572Z,14.63
2018-10-01T10:00:06.573Z,14.54
2018-10-01T10:01:06.575Z,14.05
2018-10-01T10:02:06.651Z,13.89
2018-10-01T10:03:06.576Z,13.72
2018-10-01T10:04:06.694Z,13.54
2018-10-01T10:05:06.578Z,13.37
2018-10-01T10:06:06.578Z,13.23
2018-10-01T10:07:06.579Z,13.20
2018-10-01T10:08:06.628Z,13.15
2018-10-01T10:09:06.580Z,13.96
2018-10-01T10:10:06.642Z,15.52
2018-10-01T10:11:06.579Z,16.32
2018-10-01T10:12:06.577Z,16.99
2018-10-01T10:13:06.578Z,17.79
2018-10-01T10:14:06.586Z,17.71
2018-10-01T10:15:06.578Z,17.29
2018-10-01T10:16:06.661Z,17.72
2018-10-01T10:17:06.643Z,17.85
2018-10-01T10:18:06.647Z,18.04
2018-10-01T10:19:06.581Z,16.99
2018-10-01T10:20:06.590Z,17.45
2018-10-01T10:21:06.584Z,16.65
2018-10-01T10:22:06.652Z,15.77
2018-10-01T10:23:06.587Z,15.75
2018-10-01T10:24:06.590Z,15.49
2018-10-01T10:25:06.593Z,16.53
2018-10-01T10:26:06.610Z,15.90
2018-10-01T10:27:06.650Z,16.16
2018-10-01T10:28:06.646Z,16.13
2018-10-01T10:29:06.600Z,15.90
2018-10-01T10:30:06.601Z,15.82
2018-10-01T10:31:06.604Z,15.62
2018-10-01T10:32:06.690Z,14.89
2018-10-01T10:33:06.608Z,13.96
2018-10-01T10:34:06.629Z,13.27
2018-10-01T10:35:06.610Z,12.87
2018-10-01T10:36:06.611Z,12.58
2018-10-01T10:37:06.613Z,12.42
2018-10-01T10:38:06.645Z,12.10
2018-10-01T10:39:06.614Z,11.81
2018-10-01T10:40:06.638Z,11.86
2018-10-01T10:41:06.622Z,11.81
2018-10-01T10:42:06.615Z,11.95
2018-10-01T10:43:06.615Z,12.07
2018-10-01T10:44:06.649Z,11.97
2018-10-01T10:45:06.614Z,12.09
2018-10-01T10:46:06.616Z,12.15
2018-10-01T10:47:06.613Z,12.29
2018-10-01T10:48:06.685Z,12.37
2018-10-01T10:49:06.612Z,12.73
2018-10-01T10:50:06.638Z,13.08
2018-10-01T10:51:06.608Z,13.23
2018-10-01T10:52:06.608Z,13.35
2018-10-01T10:53:06.607Z,13.31
2018-10-01T10:54:06.606Z,13.57
2018-10-01T10:55:06.605Z,13.68
2018-10-01T10:56:06.657Z,13.67
2018-10-01T10:57:06.666Z,13.65
2018-10-01T10:58:06.601Z,13.30
2018-10-01T10:59:06.599Z,13.16
2018-10-01T11:00:06.598Z,13.03
2018-10-01T11:01:06.597Z,12.90
2018-10-01T11:02:06.658Z,13.03
2018-10-01T11:03:06.595Z,13.01
2018-10-01T11:04:06.593Z,13.08
2018-10-01T11:05:06.594Z,13.19
2018-10-01T11:06:06.592Z,13.18
2018-10-01T11:07:06.645Z,13.19
2018-10-01T11:08:06.610Z,13.35
2018-10-01T11:09:06.587Z,13.46
2018-10-01T11:10:06.588Z,13.62
2018-10-01T11:11:06.584Z,13.79
2018-10-01T11:12:06.582Z,13.67
2018-10-01T11:13:06.580Z,13.85
2018-10-01T11:14:06.756Z,13.86
2018-10-01T11:15:06.745Z,13.87
2018-10-01T11:16:06.575Z,13.81
2018-10-01T11:17:06.602Z,13.86
2018-10-01T11:18:06.624Z,13.97
2018-10-01T11:19:06.718Z,13.95
2018-10-01T11:20:06.607Z,14.03
2018-10-01T11:21:06.683Z,14.20
2018-10-01T11:22:06.565Z,14.22
2018-10-01T11:23:06.562Z,14.03
2018-10-01T11:24:06.596Z,13.83
2018-10-01T11:25:06.559Z,13.79
2018-10-01T11:26:06.558Z,13.79
2018-10-01T11:27:06.624Z,13.77
2018-10-01T11:28:06.552Z,13.77
2018-10-01T11:29:06.577Z,13.81
2018-10-01T11:30:06.548Z,13.95
2018-10-01T11:31:06.544Z,13.87
2018-10-01T11:32:06.607Z,13.92
2018-10-01T11:33:06.557Z,13.65
2018-10-01T11:34:06.541Z,13.35
2018-10-01T11:35:06.695Z,13.18
2018-10-01T11:36:06.540Z,13.11
2018-10-01T11:37:06.534Z,13.01
2018-10-01T11:38:06.532Z,12.86
2018-10-01T11:39:06.545Z,12.90
2018-10-01T11:40:06.529Z,12.75
2018-10-01T11:41:06.526Z,12.32
2018-10-01T11:42:06.523Z,11.65
2018-10-01T11:43:06.522Z,11.43
2018-10-01T11:44:06.520Z,11.00
2018-10-01T11:45:06.575Z,10.90
2018-10-01T11:46:06.513Z,10.75
2018-10-01T11:47:06.512Z,10.76
2018-10-01T11:48:06.510Z,10.78
2018-10-01T11:49:06.507Z,10.75
2018-10-01T11:50:06.502Z,10.86
2018-10-01T11:51:06.559Z,11.04
2018-10-01T11:52:06.497Z,11.04
2018-10-01T11:53:06.494Z,11.26
2018-10-01T11:54:06.566Z,11.50
2018-10-01T11:55:06.487Z,11.63
2018-10-01T11:56:06.485Z,11.48
2018-10-01T11:57:06.510Z,11.65
2018-10-01T11:58:06.478Z,11.70
2018-10-01T11:59:06.475Z,11.84
2018-10-01T12:00:06.472Z,11.81
2018-10-01T12:01:06.469Z,12.09
2018-10-01T12:02:06.466Z,12.13
2018-10-01T12:03:06.499Z,12.17
2018-10-01T12:04:06.483Z,12.13
2018-10-01T12:05:06.457Z,11.95
2018-10-01T12:06:06.455Z,11.90
2018-10-01T12:07:06.452Z,11.81
2018-10-01T12:08:06.448Z,11.84
2018-10-01T12:09:06.451Z,11.80
2018-10-01T12:10:06.533Z,11.88
2018-10-01T12:11:06.440Z,11.94
2018-10-01T12:12:06.437Z,11.87
2018-10-01T12:13:06.436Z,11.97
2018-10-01T12:14:06.430Z,11.99
2018-10-01T12:15:06.444Z,12.00
2018-10-01T12:16:06.513Z,12.13
2018-10-01T12:17:06.421Z,12.25
2018-10-01T12:18:06.420Z,12.53
2018-10-01T12:19:06.416Z,12.62
2018-10-01T12:20:06.414Z,12.72
2018-10-01T12:21:06.450Z,12.75
2018-10-01T12:22:06.414Z,12.61
2018-10-01T12:23:06.403Z,12.61
2018-10-01T12:24:06.401Z,12.75
2018-10-01T12:25:06.399Z,12.86
2018-10-01T12:26:06.394Z,12.86
2018-10-01T12:27:06.465Z,12.95
2018-10-01T12:28:06.388Z,12.94
2018-10-01T12:29:06.412Z,13.11
2018-10-01T12:30:06.383Z,12.87
2018-10-01T12:31:06.379Z,12.90
2018-10-01T12:32:06.376Z,12.94
2018-10-01T12:33:06.444Z,12.98
2018-10-01T12:34:06.371Z,12.97
2018-10-01T12:35:06.439Z,12.95
2018-10-01T12:36:06.365Z,12.94
2018-10-01T12:37:06.362Z,13.01
2018-10-01T12:38:06.358Z,12.83
2018-10-01T12:39:06.398Z,12.80
2018-10-01T12:40:06.352Z,12.75
2018-10-01T12:41:06.350Z,12.73
2018-10-01T12:42:06.347Z,12.73
2018-10-01T12:43:06.344Z,12.68
2018-10-01T12:44:06.341Z,12.62
2018-10-01T12:45:06.430Z,12.60
2018-10-01T12:46:06.335Z,12.57
2018-10-01T12:47:06.331Z,12.58
2018-10-01T12:48:06.330Z,12.57
2018-10-01T12:49:06.327Z,12.53
2018-10-01T12:50:06.320Z,12.64
2018-10-01T12:51:06.373Z,12.62
2018-10-01T12:52:06.317Z,12.82
2018-10-01T12:53:06.314Z,12.79
2018-10-01T12:54:06.309Z,12.83
2018-10-01T12:55:06.307Z,12.82
2018-10-01T12:56:06.304Z,12.91
2018-10-01T12:57:06.341Z,12.80
2018-10-01T12:58:06.299Z,12.93
2018-10-01T12:59:06.294Z,13.04
2018-10-01T13:00:06.290Z,13.31